createdAt,value
2018-05-15T13:48:34.335Z,23.5
2018-05-15T13:49:03.615Z,23.6
2018-05-15T13:49:54.259Z,23.6
2018-05-15T13:51:28.568Z,23.6
2018-05-15T13:53:12.410Z,23.6
2018-05-15T13:54:17.873Z,23.6
2018-05-15T13:55:23.036Z,23.6
2018-05-15T13:56:28.780Z,23.5
2018-05-15T13:57:34.461Z,23.5
2018-05-15T13:58:39.620Z,23.4
2018-05-15T13:59:44.833Z,23.4
2018-05-15T14:00:49.810Z,23.4
2018-05-15T14:01:55.244Z,23.5
2018-05-15T14:03:00.418Z,23.5
2018-05-15T14:04:05.019Z,23.5
2018-05-15T14:05:10.178Z,23.4
2018-05-15T14:06:15.629Z,23.4
2018-05-15T14:07:20.897Z,23.5
2018-05-15T14:08:26.044Z,23.5
2018-05-15T14:09:31.188Z,23.5
2018-05-15T14:10:36.624Z,23.5
2018-05-15T14:11:41.497Z,23.5
2018-05-15T14:12:46.956Z,23.5
2018-05-15T14:13:51.842Z,23.5
2018-05-15T14:14:56.996Z,23.5
2018-05-15T14:16:02.150Z,23.5
2018-05-15T14:17:07.075Z,23.6
2018-05-15T14:18:12.236Z,23.5
2018-05-15T14:19:17.733Z,23.5
2018-05-15T14:20:23.534Z,23.5
2018-05-15T14:21:28.998Z,23.5
2018-05-15T14:22:34.441Z,23.4
2018-05-15T14:23:39.875Z,23.5
2018-05-15T14:24:45.387Z,23.5
2018-05-15T14:25:50.507Z,23.5
2018-05-15T14:26:55.417Z,23.5
2018-05-15T14:28:00.947Z,23.5
2018-05-15T14:29:05.002Z,23.4
2018-05-15T14:30:10.200Z,23.4
2018-05-15T14:31:15.507Z,23.4
2018-05-15T14:32:20.902Z,23.4
2018-05-15T14:33:26.844Z,23.4
2018-05-15T14:34:31.704Z,23.4
2018-05-15T14:35:36.573Z,23.4
2018-05-15T14:36:42.006Z,23.4
2018-05-15T14:37:47.441Z,23.4
2018-05-15T14:38:52.327Z,23.4
2018-05-15T14:39:57.206Z,23.3
2018-05-15T14:41:02.348Z,23.3
2018-05-15T14:42:07.503Z,23.3
2018-05-15T14:43:12.674Z,23.4
2018-05-15T14:44:17.050Z,23.4
2018-05-15T14:45:22.222Z,23.4
2018-05-15T14:46:42.050Z,23.5
2018-05-15T14:47:47.161Z,23.5
2018-05-15T14:48:52.643Z,23.5
2018-05-15T14:49:57.243Z,23.5
2018-05-15T14:51:02.387Z,23.5
2018-05-15T14:52:06.711Z,23.6
2018-05-15T14:53:11.928Z,23.6
2018-05-15T14:54:17.247Z,23.6
2018-05-15T14:55:22.679Z,23.6
2018-05-15T14:56:27.559Z,23.5
2018-05-15T14:57:32.884Z,23.5
2018-05-15T14:58:38.060Z,23.5
2018-05-15T14:59:43.220Z,23.5
2018-05-15T15:00:48.376Z,23.5
2018-05-15T15:01:52.964Z,23.6
2018-05-15T15:02:58.108Z,23.6
2018-05-15T15:04:03.102Z,23.6
2018-05-15T15:05:07.971Z,23.6
2018-05-15T15:06:13.458Z,23.5
2018-05-15T15:07:18.620Z,23.6
2018-05-15T15:08:22.919Z,23.6
2018-05-15T15:09:27.324Z,23.6
2018-05-15T15:10:32.480Z,23.6
2018-05-15T15:11:37.631Z,23.6
2018-05-15T15:12:43.075Z,23.7
2018-05-15T15:13:48.505Z,23.7
2018-05-15T15:14:53.937Z,23.7
2018-05-15T15:15:59.385Z,23.6
2018-05-15T15:17:03.972Z,23.7
2018-05-15T15:18:09.126Z,23.6
2018-05-15T15:19:14.501Z,23.6
2018-05-15T15:20:19.666Z,23.7
2018-05-15T15:21:25.173Z,23.7
2018-05-15T15:22:30.345Z,23.7
2018-05-15T15:23:35.244Z,23.6
2018-05-15T15:24:40.944Z,23.6
2018-05-15T15:25:46.378Z,23.5
2018-05-15T15:26:51.258Z,23.5
2018-05-15T15:27:56.409Z,23.5
2018-05-15T15:29:01.278Z,23.4
2018-05-15T15:30:05.595Z,23.5
2018-05-15T15:31:10.591Z,23.5
2018-05-15T15:32:15.747Z,23.4
2018-05-15T15:33:20.361Z,23.3
2018-05-15T15:34:25.580Z,23.3
2018-05-15T15:35:30.465Z,23.2
2018-05-15T15:36:35.712Z,23.2
2018-05-15T15:37:40.581Z,23.2
2018-05-15T15:38:45.733Z,23.2
2018-05-15T15:39:50.608Z,23.1
2018-05-15T15:40:55.477Z,23.2
2018-05-15T15:42:00.913Z,23.1
2018-05-15T15:43:05.380Z,23.1
2018-05-15T15:44:10.257Z,23.1
2018-05-15T15:45:14.872Z,23
2018-05-15T15:46:19.756Z,23
2018-05-15T15:47:25.248Z,23
2018-05-15T15:48:30.228Z,23
2018-05-15T15:49:35.658Z,23
2018-05-15T15:50:40.816Z,22.9
2018-05-15T15:51:45.692Z,22.9
2018-05-15T15:52:51.145Z,22.9
2018-05-15T15:53:56.583Z,22.9
2018-05-15T15:55:01.737Z,22.9
2018-05-15T15:56:06.325Z,22.9
2018-05-15T15:57:10.915Z,22.8
2018-05-15T15:58:16.160Z,22.9
2018-05-15T15:59:21.334Z,22.9
2018-05-15T16:00:26.937Z,22.8
2018-05-15T16:01:32.082Z,22.8
2018-05-15T16:02:37.538Z,22.8
2018-05-15T16:03:42.735Z,22.8
2018-05-15T16:04:47.889Z,22.7
2018-05-15T16:05:53.077Z,22.7
2018-05-15T16:06:58.249Z,22.7
2018-05-15T16:08:03.718Z,22.7
2018-05-15T16:09:09.168Z,22.7
2018-05-15T16:10:14.772Z,22.7
2018-05-15T16:11:19.672Z,22.7
2018-05-15T16:12:25.123Z,22.7
2018-05-15T16:13:29.649Z,22.6
2018-05-15T16:14:34.806Z,22.6
2018-05-15T16:15:39.325Z,22.6
2018-05-15T16:16:44.101Z,22.6
2018-05-15T16:17:49.277Z,22.6
2018-05-15T16:18:54.432Z,22.6
2018-05-15T16:19:59.576Z,22.6
2018-05-15T16:21:04.457Z,22.5
2018-05-15T16:22:09.661Z,22.6
2018-05-15T16:23:14.065Z,22.6
2018-05-15T16:24:19.555Z,22.6
2018-05-15T16:25:24.959Z,22.6
2018-05-15T16:26:30.411Z,22.6
2018-05-15T16:27:35.278Z,22.6
2018-05-15T16:28:40.856Z,22.6
2018-05-15T16:29:46.370Z,22.6
2018-05-15T16:30:51.808Z,22.6
2018-05-15T16:31:57.251Z,22.5
2018-05-15T16:33:02.393Z,22.5
2018-05-15T16:34:07.251Z,22.5
2018-05-15T16:35:12.695Z,22.6
2018-05-15T16:36:18.136Z,22.6
2018-05-15T16:37:23.012Z,22.6
2018-05-15T16:38:27.891Z,22.7
2018-05-15T16:39:33.186Z,22.7
2018-05-15T16:40:38.056Z,22.7
2018-05-15T16:41:43.160Z,22.6
2018-05-15T16:42:47.840Z,22.6
2018-05-15T16:43:53.031Z,22.6
2018-05-15T16:44:58.821Z,22.5
2018-05-15T16:46:04.263Z,22.5
2018-05-15T16:47:08.873Z,22.5
2018-05-15T16:48:13.752Z,22.5
2018-05-15T16:49:18.936Z,22.5
2018-05-15T16:50:23.801Z,22.7
2018-05-15T16:51:29.448Z,22.9
2018-05-15T16:52:34.589Z,23
2018-05-15T16:53:40.111Z,23
2018-05-15T16:54:45.542Z,23.1
2018-05-15T16:55:50.992Z,22.9
2018-05-15T16:56:56.152Z,22.7
2018-05-15T16:58:00.781Z,22.9
2018-05-15T16:59:05.946Z,22.8
2018-05-15T17:00:11.436Z,22.6
2018-05-15T17:01:16.871Z,22.6
2018-05-15T17:02:21.764Z,22.6
2018-05-15T17:03:27.260Z,22.5
2018-05-15T17:04:32.696Z,22.5
2018-05-15T17:05:38.129Z,22.4
2018-05-15T17:06:43.277Z,22.3
2018-05-15T17:07:48.271Z,22.3
2018-05-15T17:08:53.546Z,22.4
2018-05-15T17:09:58.979Z,22.4
2018-05-15T17:11:03.857Z,22.4
2018-05-15T17:12:08.435Z,22.4
2018-05-15T17:13:13.454Z,22.4
2018-05-15T17:14:19.039Z,22.4
2018-05-15T17:16:44.761Z,22.3
2018-05-15T17:17:49.912Z,22.3
2018-05-15T17:18:55.492Z,22.3
2018-05-15T17:20:00.934Z,22.4
2018-05-15T17:21:06.363Z,22.4
2018-05-15T17:22:11.609Z,22.5
2018-05-15T17:23:16.514Z,22.5
2018-05-15T17:24:21.393Z,22.5
2018-05-15T17:25:27.079Z,22.4
2018-05-15T17:26:32.957Z,22.4
2018-05-15T17:27:38.119Z,22.3
2018-05-15T17:28:43.306Z,22.3
2018-05-15T17:29:49.070Z,22.3
2018-05-15T17:30:54.607Z,22.3
2018-05-15T17:32:00.042Z,22.2
2018-05-15T17:33:04.374Z,22.3
2018-05-15T17:34:08.974Z,22.3
2018-05-15T17:35:13.865Z,22.2
2018-05-15T17:36:19.014Z,22.2
2018-05-15T17:37:24.507Z,22.1
2018-05-15T17:38:29.401Z,22.1
2018-05-15T17:39:34.981Z,22.1
2018-05-15T17:40:39.854Z,22.1
2018-05-15T17:41:45.360Z,22.1
2018-05-15T17:42:50.379Z,22.1
2018-05-15T17:43:55.807Z,22.1
2018-05-15T17:45:00.664Z,22.1
2018-05-15T17:46:05.278Z,22.1
2018-05-15T17:47:10.451Z,22.1
2018-05-15T17:48:15.886Z,22.1
2018-05-15T17:49:20.757Z,22.1
2018-05-15T17:50:25.931Z,22.1
2018-05-15T17:51:31.305Z,22.1
2018-05-15T17:52:36.163Z,22.1
2018-05-15T17:53:41.333Z,22
2018-05-15T17:54:46.774Z,22
2018-05-15T17:55:51.660Z,22
2018-05-15T17:56:57.105Z,22
2018-05-15T17:58:02.119Z,21.9
2018-05-15T17:59:07.269Z,21.9
2018-05-15T18:00:12.710Z,21.9
2018-05-15T18:01:17.887Z,21.9
2018-05-15T18:02:23.365Z,21.9
2018-05-15T18:03:28.720Z,21.9
2018-05-15T18:04:34.161Z,21.9
2018-05-15T18:05:39.314Z,21.9
2018-05-15T18:06:44.733Z,21.9
2018-05-15T18:07:50.165Z,21.9
2018-05-15T18:08:55.073Z,21.9
2018-05-15T18:10:00.325Z,21.9
2018-05-15T18:11:04.644Z,21.9
2018-05-15T18:12:10.129Z,21.9
2018-05-15T18:13:14.992Z,21.9
2018-05-15T18:14:19.857Z,21.9
2018-05-15T18:15:25.136Z,21.9
2018-05-15T18:16:29.861Z,21.9
2018-05-15T18:17:35.294Z,21.9
2018-05-15T18:18:40.874Z,21.9
2018-05-15T18:19:46.029Z,21.9
2018-05-15T18:20:51.516Z,21.9
2018-05-15T18:21:56.408Z,21.9
2018-05-15T18:23:01.543Z,21.8
2018-05-15T18:24:06.410Z,21.8
2018-05-15T18:25:11.375Z,21.8
2018-05-15T18:26:16.527Z,21.8
2018-05-15T18:27:21.676Z,21.8
2018-05-15T18:28:26.790Z,21.8
2018-05-15T18:29:31.933Z,21.8
2018-05-15T18:30:37.836Z,21.8
2018-05-15T18:31:43.267Z,21.8
2018-05-15T18:32:48.411Z,21.8
2018-05-15T18:33:53.733Z,21.8
2018-05-15T18:34:59.187Z,21.8
2018-05-15T18:36:04.653Z,21.8
2018-05-15T18:37:09.918Z,21.8
2018-05-15T18:38:15.352Z,21.8
2018-05-15T18:39:20.577Z,21.8
2018-05-15T18:40:26.065Z,21.8
2018-05-15T18:41:31.543Z,21.8
2018-05-15T18:42:36.691Z,21.8
2018-05-15T18:43:41.858Z,21.8
2018-05-15T18:44:47.287Z,21.8
2018-05-15T18:45:52.492Z,21.8
2018-05-15T18:46:57.391Z,21.8
2018-05-15T18:48:02.822Z,21.7
2018-05-15T18:49:08.095Z,21.7
2018-05-15T18:50:13.521Z,21.7
2018-05-15T18:51:18.665Z,21.7
2018-05-15T18:52:23.957Z,21.7
2018-05-15T18:53:28.274Z,21.7
2018-05-15T18:54:33.425Z,21.7
2018-05-15T18:55:38.313Z,21.7
2018-05-15T18:56:43.456Z,21.7
2018-05-15T18:57:48.761Z,21.7
2018-05-15T18:58:54.220Z,21.7
2018-05-15T18:59:59.419Z,21.7
2018-05-15T19:01:04.566Z,21.7
2018-05-15T19:02:09.723Z,21.7
2018-05-15T19:03:15.156Z,21.7
2018-05-15T19:04:19.744Z,21.7
2018-05-15T19:05:24.910Z,21.6
2018-05-15T19:06:30.254Z,21.7
2018-05-15T19:07:35.410Z,21.7
2018-05-15T19:08:40.573Z,21.7
2018-05-15T19:09:46.005Z,21.6
2018-05-15T19:10:51.164Z,21.7
2018-05-15T19:11:56.594Z,21.6
2018-05-15T19:13:01.857Z,21.6
2018-05-15T19:14:07.018Z,21.7
2018-05-15T19:15:12.466Z,21.6
2018-05-15T19:16:18.004Z,21.6
2018-05-15T19:17:22.880Z,21.6
2018-05-15T19:18:28.007Z,21.6
2018-05-15T19:19:32.904Z,21.6
2018-05-15T19:20:38.735Z,21.6
2018-05-15T19:21:43.907Z,21.6
2018-05-15T19:22:48.783Z,21.6
2018-05-15T19:23:53.930Z,21.6
2018-05-15T19:24:59.364Z,21.6
2018-05-15T19:26:03.943Z,21.6
2018-05-15T19:27:08.933Z,21.6
2018-05-15T19:28:13.657Z,21.6
2018-05-15T19:29:18.979Z,21.6
2018-05-15T19:30:24.121Z,21.6
2018-05-15T19:31:30.454Z,21.6
2018-05-15T19:32:35.891Z,21.6
2018-05-15T19:33:41.479Z,21.6
2018-05-15T19:34:46.626Z,21.6
2018-05-15T19:35:51.524Z,21.6
2018-05-15T19:36:56.131Z,21.6
2018-05-15T19:38:01.566Z,21.6
2018-05-15T19:39:06.445Z,21.6
2018-05-15T19:40:11.866Z,21.6
2018-05-15T19:41:17.296Z,21.6
2018-05-15T19:42:22.442Z,21.6
2018-05-15T19:43:28.372Z,21.6
2018-05-15T19:44:33.810Z,21.6
2018-05-15T19:45:38.689Z,21.6
2018-05-15T19:46:43.626Z,21.6
2018-05-15T19:47:48.782Z,21.6
2018-05-15T19:48:53.959Z,21.6
2018-05-15T19:49:58.828Z,21.6
2018-05-15T19:51:03.716Z,21.6
2018-05-15T19:52:08.314Z,21.6
2018-05-15T19:53:13.760Z,21.6
2018-05-15T19:54:18.908Z,21.5
2018-05-15T19:55:23.896Z,21.5
2018-05-15T19:56:29.145Z,21.6
2018-05-15T19:57:34.621Z,21.5
2018-05-15T19:58:39.482Z,21.5
2018-05-15T19:59:44.635Z,21.5
2018-05-15T20:00:50.047Z,21.5
2018-05-15T20:01:55.276Z,21.5
2018-05-15T20:03:01.389Z,21.5
2018-05-15T20:04:05.412Z,21.5
2018-05-15T20:05:10.567Z,21.6
2018-05-15T20:06:16.012Z,21.6
2018-05-15T20:07:20.884Z,21.6
2018-05-15T20:08:26.317Z,21.6
2018-05-15T20:09:31.468Z,21.6
2018-05-15T20:10:36.637Z,21.6
2018-05-15T20:11:41.864Z,21.6
2018-05-15T20:12:47.475Z,21.6
2018-05-15T20:13:52.639Z,21.6
2018-05-15T20:14:58.083Z,21.6
2018-05-15T20:16:03.550Z,21.6
2018-05-15T20:17:08.330Z,21.6
2018-05-15T20:18:13.772Z,21.6
2018-05-15T20:19:18.945Z,21.6
2018-05-15T20:20:24.089Z,21.6
2018-05-15T20:21:29.247Z,21.6
2018-05-15T20:22:34.110Z,21.6
2018-05-15T20:23:39.562Z,21.6
2018-05-15T20:24:45.293Z,21.6
2018-05-15T20:25:50.723Z,21.6
2018-05-15T20:26:56.162Z,21.6
2018-05-15T20:28:01.309Z,21.6
2018-05-15T20:29:05.996Z,21.6
2018-05-15T20:30:10.624Z,21.6
2018-05-15T20:31:15.204Z,21.6
2018-05-15T20:32:20.641Z,21.6
2018-05-15T20:33:26.137Z,21.6
2018-05-15T20:34:31.299Z,21.6
2018-05-15T20:35:36.459Z,21.6
2018-05-15T20:36:41.752Z,21.6
2018-05-15T20:37:47.196Z,21.6
2018-05-15T20:38:52.736Z,21.6
2018-05-15T20:39:57.921Z,21.6
2018-05-15T20:41:02.810Z,21.7
2018-05-15T20:42:08.056Z,21.6
2018-05-15T20:43:13.150Z,21.6
2018-05-15T20:44:18.313Z,21.6
2018-05-15T20:45:23.189Z,21.6
2018-05-15T20:46:28.262Z,21.6
2018-05-15T20:47:33.711Z,21.6
2018-05-15T20:48:39.198Z,21.6
2018-05-15T20:49:44.627Z,21.6
2018-05-15T20:50:50.057Z,21.7
2018-05-15T20:51:55.709Z,21.6
2018-05-15T20:53:01.149Z,21.7
2018-05-15T20:54:06.027Z,21.7
2018-05-15T20:55:11.170Z,21.7
2018-05-15T20:56:16.615Z,21.7
2018-05-15T20:57:21.496Z,21.7
2018-05-15T20:58:30.780Z,21.7
2018-05-15T20:59:35.932Z,21.7
2018-05-15T21:00:41.463Z,21.7
2018-05-15T21:01:47.369Z,21.7
2018-05-15T21:02:52.805Z,21.7
2018-05-15T21:03:58.238Z,21.7
2018-05-15T21:05:03.697Z,21.7
2018-05-15T21:06:08.292Z,21.7
2018-05-15T21:07:13.729Z,21.7
2018-05-15T21:08:18.875Z,21.7
2018-05-15T21:09:24.379Z,21.6
2018-05-15T21:10:29.286Z,21.7
2018-05-15T21:11:34.728Z,21.6
2018-05-15T21:12:39.403Z,21.7
2018-05-15T21:13:44.621Z,21.6
2018-05-15T21:14:49.770Z,21.7
2018-05-15T21:15:55.004Z,21.6
2018-05-15T21:17:00.156Z,21.7
2018-05-15T21:18:05.046Z,21.7
2018-05-15T21:19:10.628Z,21.7
2018-05-15T21:20:16.057Z,21.7
2018-05-15T21:21:20.941Z,21.7
2018-05-15T21:22:26.481Z,21.7
2018-05-15T21:23:31.637Z,21.7
2018-05-15T21:24:36.793Z,21.7
2018-05-15T21:25:42.224Z,21.7
2018-05-15T21:26:47.374Z,21.6
2018-05-15T21:27:52.628Z,21.7
2018-05-15T21:28:57.769Z,21.7
2018-05-15T21:30:03.204Z,21.7
2018-05-15T21:31:08.802Z,21.7
2018-05-15T21:32:14.235Z,21.7
2018-05-15T21:33:19.874Z,21.7
2018-05-15T21:34:25.397Z,21.6
2018-05-15T21:35:30.313Z,21.7
2018-05-15T21:36:35.863Z,21.7
2018-05-15T21:37:41.023Z,21.7
2018-05-15T21:38:46.456Z,21.7
2018-05-15T21:39:51.421Z,21.7
2018-05-15T21:40:56.666Z,21.6
2018-05-15T21:42:02.112Z,21.6
2018-05-15T21:43:07.552Z,21.7
2018-05-15T21:44:12.142Z,21.6
2018-05-15T21:45:17.299Z,21.7
2018-05-15T21:46:22.842Z,21.7
2018-05-15T21:47:27.710Z,21.7
2018-05-15T21:48:33.343Z,21.7
2018-05-15T21:49:38.516Z,21.6
2018-05-15T21:50:43.963Z,21.6
2018-05-15T21:51:49.118Z,21.7
2018-05-15T21:52:54.274Z,21.6
2018-05-15T21:53:59.139Z,21.7
2018-05-15T21:55:04.394Z,21.7
2018-05-15T21:56:09.284Z,21.7
2018-05-15T21:57:14.716Z,21.7
2018-05-15T21:58:20.155Z,21.7
2018-05-15T21:59:25.601Z,21.7
2018-05-15T22:00:31.425Z,21.7
2018-05-15T22:01:36.619Z,21.7
2018-05-15T22:02:42.055Z,21.7
2018-05-15T22:03:46.452Z,21.7
2018-05-15T22:04:51.841Z,21.7
2018-05-15T22:05:57.276Z,21.7
2018-05-15T22:07:02.151Z,21.7
2018-05-15T22:08:07.006Z,21.7
2018-05-15T22:09:12.162Z,21.7
2018-05-15T22:10:17.646Z,21.7
2018-05-15T22:11:22.800Z,21.6
2018-05-15T22:12:27.999Z,21.7
2018-05-15T22:13:32.874Z,21.7
2018-05-15T22:14:38.022Z,21.7
2018-05-15T22:15:43.041Z,21.7
2018-05-15T22:16:47.610Z,21.7
2018-05-15T22:17:52.768Z,21.7
2018-05-15T22:18:57.912Z,21.7
2018-05-15T22:20:02.775Z,21.7
2018-05-15T22:21:07.921Z,21.7
2018-05-15T22:22:12.890Z,21.7
2018-05-15T22:23:18.327Z,21.7
2018-05-15T22:24:23.207Z,21.7
2018-05-15T22:25:27.843Z,21.7
2018-05-15T22:26:33.012Z,21.7
2018-05-15T22:27:38.171Z,21.7
2018-05-15T22:28:43.326Z,21.7
2018-05-15T22:29:48.771Z,21.7
2018-05-15T22:30:54.086Z,21.7
2018-05-15T22:31:59.240Z,21.7
2018-05-15T22:33:04.138Z,21.7
2018-05-15T22:34:09.576Z,21.7
2018-05-15T22:35:14.726Z,21.7
2018-05-15T22:36:19.885Z,21.7
2018-05-15T22:37:39.964Z,21.7
2018-05-15T22:38:45.139Z,21.7
2018-05-15T22:39:50.820Z,21.6
2018-05-15T22:40:56.258Z,21.7
2018-05-15T22:42:01.687Z,21.7
2018-05-15T22:43:05.998Z,21.7
2018-05-15T22:44:11.130Z,21.6
2018-05-15T22:45:16.288Z,21.7
2018-05-15T22:46:21.872Z,21.6
2018-05-15T22:47:27.033Z,21.7
2018-05-15T22:48:32.476Z,21.6
2018-05-15T22:49:37.638Z,21.7
2018-05-15T22:50:43.069Z,21.6
2018-05-15T22:51:48.600Z,21.7
2018-05-15T22:52:54.040Z,21.6
2018-05-15T22:53:58.907Z,21.7
2018-05-15T22:55:04.188Z,21.7
2018-05-15T22:56:09.332Z,21.6
2018-05-15T22:57:13.925Z,21.7
2018-05-15T22:58:18.811Z,21.7
2018-05-15T22:59:23.956Z,21.7
2018-05-15T23:00:29.359Z,21.7
2018-05-15T23:01:33.935Z,21.7
2018-05-15T23:02:39.373Z,21.7
2018-05-15T23:03:44.684Z,21.7
2018-05-15T23:04:49.844Z,21.7
2018-05-15T23:05:55.274Z,21.7
2018-05-15T23:07:00.872Z,21.7
2018-05-15T23:08:05.739Z,21.6
2018-05-15T23:09:10.326Z,21.6
2018-05-15T23:10:15.209Z,21.6
2018-05-15T23:11:20.379Z,21.6
2018-05-15T23:12:25.693Z,21.6
2018-05-15T23:13:30.843Z,21.6
2018-05-15T23:14:36.282Z,21.6
2018-05-15T23:15:41.219Z,21.6
2018-05-15T23:16:46.201Z,21.6
2018-05-15T23:17:51.336Z,21.6
2018-05-15T23:18:56.364Z,21.6
2018-05-15T23:20:01.266Z,21.6
2018-05-15T23:21:07.013Z,21.6
2018-05-15T23:22:12.545Z,21.6
2018-05-15T23:23:17.975Z,21.6
2018-05-15T23:24:23.138Z,21.6
2018-05-15T23:25:28.315Z,21.6
2018-05-15T23:26:33.792Z,21.6
2018-05-15T23:27:38.620Z,21.6
2018-05-15T23:28:43.773Z,21.6
2018-05-15T23:29:49.232Z,21.6
2018-05-15T23:30:54.391Z,21.6
2018-05-15T23:31:59.534Z,21.6
2018-05-15T23:33:04.144Z,21.6
2018-05-15T23:34:09.045Z,21.6
2018-05-15T23:35:14.470Z,21.6
2018-05-15T23:36:19.631Z,21.6
2018-05-15T23:37:39.537Z,21.6
2018-05-15T23:38:44.414Z,21.6
2018-05-15T23:39:50.066Z,21.6
2018-05-15T23:40:54.962Z,21.6
2018-05-15T23:41:59.552Z,21.6
2018-05-15T23:43:04.158Z,21.6
2018-05-15T23:44:09.324Z,21.6
2018-05-15T23:45:14.480Z,21.6
2018-05-15T23:46:19.927Z,21.6
2018-05-15T23:47:25.071Z,21.6
2018-05-15T23:48:30.421Z,21.6
2018-05-15T23:49:35.622Z,21.6
2018-05-15T23:50:40.517Z,21.6
2018-05-15T23:51:45.765Z,21.6
2018-05-15T23:52:50.639Z,21.6
2018-05-15T23:53:55.793Z,21.6
2018-05-15T23:55:01.061Z,21.6
2018-05-15T23:56:05.094Z,21.6
2018-05-15T23:57:10.254Z,21.6
2018-05-15T23:58:15.416Z,21.6
2018-05-15T23:59:20.569Z,21.6
